Angelo Coast Range Reserve, California Weather observations

Data are for 10 minute period ending at time listed.
 Day   Time   Solar   Ave.   Ave.  Ave.  Vector  Max.   Baro.   Total    
  of    of     Rad.   Air    Rel.  Wind   Wind   Wind  Press.  Precip.   
Year   Day            Temp.  Hum.  Speed  Dir.   Gust                    
2016   (PST)  Kw/m2    F      %     mph   deg.    mph    mb.     in.     
-------------------------------------------------------------------------
 144    0:00   0.00   42.0    98    0.6   187     1.3   966.0    0.00 
 144    0:10   0.00   41.9    98    0.0     0     0.0   966.0    0.00 
 144    0:20   0.00   41.7    98    0.0     0     0.0   966.0    0.00 
 144    0:30   0.00   41.5    98    0.0     0     0.0   965.9    0.00 
 144    0:40   0.00   41.5    98    0.0     0     0.0   965.8    0.00 
 144    0:50   0.00   41.3    99    0.0     0     0.0   965.7    0.00 
 144    1:00   0.00   41.3    99    0.0     0     0.0   965.7    0.00 
 144    1:10   0.00   41.4    99    0.0     0     0.0   965.6    0.00 
 144    1:20   0.00   41.6    99    0.0     0     0.0   965.5    0.00 
 144    1:30   0.00   41.8    99    0.0     0     0.0   965.4    0.00 
 144    1:40   0.00   41.8    99    0.0     0     0.0   965.2    0.00 
 144    1:50   0.00   41.7    98    0.0     0     0.0   965.2    0.00 
 144    2:00   0.00   41.6    98    0.0     0     0.0   965.1    0.00 
 144    2:10   0.00   41.6    99    0.0     0     0.0   965.1    0.00 
 144    2:20   0.00   41.8    99    0.4   187     1.2   965.0    0.00 
 144    2:30   0.00   41.8    99    1.0   178     1.9   964.9    0.00 
 144    2:40   0.00   41.9    99    0.7   177     1.9   964.9    0.00 
 144    2:50   0.00   42.0    99    0.3   192     1.3   964.9    0.00 
 144    3:00   0.00   42.0    99    0.0   200     1.2   964.8    0.00 
 144    3:10   0.00   41.9    99    1.3   186     2.8   964.8    0.00 
 144    3:20   0.00   42.0    99    0.0     2     0.6   964.7    0.00 
 144    3:30   0.00   42.0    99    0.1     6     0.7   964.7    0.00 
 144    3:40   0.00   42.0    99    0.0     6     0.6   964.7    0.00 
 144    3:50   0.00   42.0    98    0.1     7     0.7   964.6    0.00 
 144    4:00   0.00   42.0    98    0.0     0     0.0   964.5    0.00 
 144    4:10   0.00   42.1    98    0.0     0     0.0   964.4    0.00 
 144    4:20   0.00   42.1    98    0.0     0     0.0   964.4    0.00 
 144    4:30   0.00   42.1    98    0.0     0     0.0   964.4    0.00 
 144    4:40   0.00   42.3    98    0.0     0     0.0   964.4    0.00 
 144    4:50   0.00   42.4    98    0.7   170     1.8   964.4    0.00 
 144    5:00   0.00   42.4    98    0.2   166     1.2   964.4    0.00 
 144    5:10   0.00   42.5    98    0.0     0     0.0   964.3    0.00 
 144    5:20   0.01   42.5    98    0.0     0     0.0   964.3    0.00 
 144    5:30   0.01   42.6    98    0.0     0     0.0   964.3    0.00 
 144    5:40   0.02   42.9    98    0.0     0     0.0   964.3    0.00 
 144    5:50   0.03   43.0    98    0.1   166     0.7   964.3    0.00 
 144    6:00   0.04   43.2    97    0.0    20     0.6   964.4    0.00 
 144    6:10   0.05   43.6    97    0.0    20     0.7   964.4    0.00 
 144    6:20   0.06   43.9    96    0.0   153     0.4   964.3    0.00 
 144    6:30   0.08   44.2    96    0.3   186     1.0   964.3    0.00 
 144    6:40   0.08   44.8    95    0.0     0     0.0   964.3    0.00 
 144    6:50   0.09   45.4    94    0.0     0     0.0   964.3    0.00 
 144    7:00   0.10   45.8    93    0.3   147     0.9   964.4    0.00 
 144    7:10   0.11   46.3    92    0.3   125     0.9   964.3    0.00 
 144    7:20   0.14   46.8    92    0.8   143     1.5   964.3    0.00 
 144    7:30   0.17   47.8    90    0.9   147     1.5   964.3    0.00 
 144    7:40   0.18   48.7    90    0.9   128     1.5   964.3    0.00 
 144    7:50   0.21   49.3    89    1.2   111     3.0   964.3    0.00 
 144    8:00   0.26   50.6    87    0.4    92     1.2   964.3    0.00 
 144    8:10   0.30   52.1    85    0.8   100     1.5   964.3    0.00 
 144    8:20   0.31   52.8    83    1.3   135     2.0   964.4    0.00 
 144    8:30   0.30   53.5    80    0.9   148     2.3   964.4    0.00 
 144    8:40   0.30   54.6    76    2.0   159     4.0   964.4    0.00 
 144    8:50   0.30   55.5    76    1.7   157     2.6   964.3    0.00 
 144    9:00   0.31   56.5    71    1.8   139     3.4   964.3    0.00 
 144    9:10   0.32   57.1    70    1.7   124     3.0   964.3    0.00 
 144    9:20   0.35   57.7    67    2.0   170     3.4   964.3    0.00 
 144    9:30   0.39   58.2    66    1.5   157     3.2   964.2    0.00 
 144    9:40   0.40   59.0    65    0.7   131     2.8   964.2    0.00 
 144    9:50   0.39   59.4    65    1.7   140     3.8   964.2    0.00 
 144   10:00   0.48   59.3    63    3.5   154     6.6   964.2    0.00 
 144   10:10   0.55   59.9    62    2.5   153     5.7   964.1    0.00 
 144   10:20   0.66   60.9    60    2.3   136     5.9   964.1    0.00 
 144   10:30   0.52   62.0    58    2.0   345     4.6   964.0    0.00 
 144   10:40   0.74   61.7    57    1.7    50     3.5   964.0    0.00 
 144   10:50   0.27   62.5    58    1.2    32     4.7   963.9    0.00 
 144   11:00   0.22   61.0    62    1.9    40     5.7   963.9    0.00 
 144   11:10   0.33   60.8    63    1.3   101     2.7   963.8    0.00 
 144   11:20   0.43   61.2    64    3.3   142    10.2   963.8    0.00 
 144   11:30   0.46   62.1    60    2.4     3     9.5   963.8    0.00 
 144   11:40   0.60   61.5    59    4.2   346     9.0   963.8    0.00 
 144   11:50   0.71   61.9    59    5.3   135    11.9   963.7    0.00 
 144   12:00   0.79   61.6    60    5.4   144    11.1   963.7    0.00 
 144   12:10   0.67   61.4    59    7.1   127    12.5   963.6    0.00 
 144   12:20   0.57   61.2    59    5.9   129    17.0   963.6    0.00 
 144   12:30   0.44   60.9    59    5.7   116    11.5   963.6    0.00 
 144   12:40   0.42   60.7    60    6.0   140    11.2   963.5    0.00 
 144   12:50   0.42   61.0    60    4.2   139     9.2   963.5    0.00 
 144   13:00   0.41   60.7    62    5.4   135    11.4   963.6    0.00 
 144   13:10   0.46   61.6    59    3.0    41     8.1   963.6    0.00 
 144   13:20   0.44   61.6    59    3.6   156    12.1   963.6    0.00 
 144   13:30   0.42   60.8    59    4.0   143    11.6   963.6    0.00 
 144   13:40   0.54   61.6    60    4.9   136    12.9   963.5    0.00 
 144   13:50   0.76   61.9    60    3.4   133     9.9   963.5    0.00 
 144   14:00   1.05   63.0    58    7.7   150    15.8   963.3    0.00 
 144   14:10   0.73   61.5    60    8.7   150    15.3   963.2    0.00 
 144   14:20   0.53   62.3    58    5.0   152    13.0   963.2    0.00 
 144   14:30   0.37   60.8    60    6.5   150    11.9   963.2    0.00 
 144   14:40   0.36   60.2    62    7.2   153    13.0   963.2    0.00 
 144   14:50   0.38   61.0    64    3.8   150     9.5   963.1    0.00 
 144   15:00   0.32   61.9    63    2.5   165     8.3   963.1    0.00 
 144   15:10   0.30   61.9    63    1.6    65     6.9   963.1    0.00 
 144   15:20   0.43   61.2    64    2.0    90     4.7   963.1    0.00 
 144   15:30   0.64   61.4    64    3.1   112     6.6   963.0    0.00 
 144   15:40   0.65   61.1    64    4.4   118    10.7   963.0    0.00 
 144   15:50   0.65   60.9    63    4.3    53     9.7   963.0    0.00 
 144   16:00   0.55   59.8    66    5.0   150    13.7   963.0    0.00 
 144   16:10   0.30   59.3    67    3.9   122    11.0   963.1    0.00 
 144   16:20   0.42   59.2    67    4.1   134     9.4   963.1    0.00 
 144   16:30   0.47   60.1    66    2.8   160     8.0   963.0    0.00 
 144   16:40   0.25   59.1    66    3.1    98     7.2   963.0    0.00 
 144   16:50   0.41   58.5    66    2.7   128     7.3   963.0    0.00 
 144   17:00   0.46   58.3    68    5.7   173    10.0   963.0    0.00 
 144   17:10   0.38   58.3    68    4.2   171     7.2   963.0    0.00 
 144   17:20   0.14   57.5    69    3.0    70     8.3   962.9    0.00 
 144   17:30   0.11   57.3    68    2.4    33     6.7   962.9    0.00 
 144   17:40   0.12   57.2    68    1.9    48     5.0   962.9    0.00 
 144   17:50   0.10   57.0    69    3.1    26     8.5   962.8    0.00 
 144   18:00   0.09   56.1    71    2.5    23     4.7   962.8    0.00 
 144   18:10   0.08   55.8    72    1.3    20     4.4   962.8    0.00 
 144   18:20   0.08   55.7    73    2.4   135     5.5   962.8    0.00 
 144   18:30   0.06   54.8    76    3.6   160     5.6   962.8    0.00 
 144   18:40   0.04   54.2    77    3.6   153     6.3   962.8    0.00 
 144   18:50   0.04   53.9    79    2.8   134     5.7   962.8    0.00 
 144   19:00   0.03   53.7    79    3.6   155     6.6   962.9    0.00 
 144   19:10   0.02   53.4    80    3.5   152     5.6   962.9    0.00 
 144   19:20   0.01   53.2    81    2.4   143     6.1   962.9    0.00 
 144   19:30   0.01   53.2    81    2.1   149     5.7   962.9    0.00 
 144   19:40   0.00   52.8    82    3.2   163     5.5   962.9    0.00 
 144   19:50   0.00   52.4    83    2.3   166     5.3   962.9    0.00 
 144   20:00   0.00   52.1    85    2.0   167     3.5   962.8    0.00 
 144   20:10   0.00   51.9    86    1.7   149     3.3   962.9    0.00 
 144   20:20   0.00   51.6    86    2.0   151     3.2   962.9    0.00 
 144   20:30   0.00   51.5    86    1.7   163     3.7   962.9    0.00 
 144   20:40   0.00   51.5    87    1.8   166     3.5   962.9    0.00 
 144   20:50   0.00   51.5    87    1.8   162     3.4   963.0    0.00 
 144   21:00   0.00   51.4    87    1.4   191     2.6   963.0    0.00 
 144   21:10   0.00   51.2    88    2.4   160     4.3   963.1    0.00 
 144   21:20   0.00   51.1    88    1.8   161     2.6   963.2    0.00 
 144   21:30   0.00   51.0    89    2.1   160     4.7   963.2    0.00 
 144   21:40   0.00   50.9    89    2.4   141     4.1   963.2    0.00 
 144   21:50   0.00   50.9    89    1.0    83     2.4   963.1    0.00 
 144   22:00   0.00   50.9    90    0.5    20     1.5   963.0    0.00 
 144   22:10   0.00   50.9    90    0.1     7     0.7   962.9    0.00 
 144   22:20   0.00   50.7    90    0.3   208     1.0   962.9    0.00 
 144   22:30   0.00   50.6    90    1.4   131     2.6   962.9    0.00 
 144   22:40   0.00   50.6    90    0.9   114     2.0   962.9    0.00 
 144   22:50   0.00   50.6    91    0.9   164     1.8   962.9    0.00 
 144   23:00   0.00   50.5    91    1.3   123     3.3   962.8    0.00 
 144   23:10   0.00   50.6    90    1.6   127     3.5   962.8    0.00 
 144   23:20   0.00   50.5    90    2.7   155     4.0   962.8    0.00 
 144   23:30   0.00   50.5    91    1.6   156     3.0   962.8    0.00 
 144   23:40   0.00   50.5    91    1.8   158     3.1   962.8    0.00 

Return to Angelo Coast Range Reserve graphs page.


Western Regional Climate Center,wrcc@dri.edu